sensor_id;sensor_type;location;lat;lon;timestamp;pressure;altitude;pressure_sealevel;temperature;humidity
8717;BME280;4395;48.554;8.820;2023-09-19T00:00:42;95595.25;;;15.09;83.39
8717;BME280;4395;48.554;8.820;2023-09-19T00:02:54;95590.88;;;15.05;83.28
8717;BME280;4395;48.554;8.820;2023-09-19T00:04:56;95595.34;;;15.04;83.38
8717;BME280;4395;48.554;8.820;2023-09-19T00:06:59;95588.53;;;15.03;83.51
8717;BME280;4395;48.554;8.820;2023-09-19T00:09:00;95599.81;;;15.04;83.03
8717;BME280;4395;48.554;8.820;2023-09-19T00:11:04;95600.59;;;15.04;83.06
8717;BME280;4395;48.554;8.820;2023-09-19T00:13:08;95608.94;;;15.06;82.84
8717;BME280;4395;48.554;8.820;2023-09-19T00:15:15;95607.38;;;15.05;83.13
8717;BME280;4395;48.554;8.820;2023-09-19T00:17:19;95605.81;;;15.04;82.92
8717;BME280;4395;48.554;8.820;2023-09-19T00:19:23;95612.41;;;15.02;82.67
8717;BME280;4395;48.554;8.820;2023-09-19T00:21:27;95604.06;;;15.00;82.76
8717;BME280;4395;48.554;8.820;2023-09-19T00:23:30;95604.06;;;15.00;82.24
8717;BME280;4395;48.554;8.820;2023-09-19T00:25:33;95602.72;;;15.02;82.13
8717;BME280;4395;48.554;8.820;2023-09-19T00:27:37;95601.94;;;15.02;81.98
8717;BME280;4395;48.554;8.820;2023-09-19T00:29:42;95609.03;;;15.01;81.56
8717;BME280;4395;48.554;8.820;2023-09-19T00:31:45;95602.72;;;15.02;81.64
8717;BME280;4395;48.554;8.820;2023-09-19T00:33:48;95605.91;;;14.99;81.44
8717;BME280;4395;48.554;8.820;2023-09-19T00:35:54;95613.75;;;14.99;81.81
8717;BME280;4395;48.554;8.820;2023-09-19T00:37:57;95614.84;;;14.98;81.87
8717;BME280;4395;48.554;8.820;2023-09-19T00:39:59;95623.47;;;14.99;81.66
8717;BME280;4395;48.554;8.820;2023-09-19T00:42:03;95613.75;;;14.99;81.71
8717;BME280;4395;48.554;8.820;2023-09-19T00:44:06;95617.44;;;14.98;81.61
8717;BME280;4395;48.554;8.820;2023-09-19T00:46:11;95612.81;;;14.95;82.13
8717;BME280;4395;48.554;8.820;2023-09-19T00:48:14;95614.94;;;14.93;82.13
8717;BME280;4395;48.554;8.820;2023-09-19T00:50:18;95613.09;;;14.94;82.32
8717;BME280;4395;48.554;8.820;2023-09-19T00:52:24;95617.56;;;14.93;81.91
8717;BME280;4395;48.554;8.820;2023-09-19T00:54:28;95619.19;;;14.89;81.83
8717;BME280;4395;48.554;8.820;2023-09-19T00:56:32;95615.78;;;14.89;82.31
8717;BME280;4395;48.554;8.820;2023-09-19T00:58:36;95618.41;;;14.89;82.23
8717;BME280;4395;48.554;8.820;2023-09-19T01:00:40;95611.41;;;14.84;82.44
8717;BME280;4395;48.554;8.820;2023-09-19T01:02:46;95613.53;;;14.82;82.48
8717;BME280;4395;48.554;8.820;2023-09-19T01:04:48;95614.59;;;14.81;82.41
8717;BME280;4395;48.554;8.820;2023-09-19T01:06:52;95614.38;;;14.77;82.11
8717;BME280;4395;48.554;8.820;2023-09-19T01:08:57;95613.59;;;14.77;82.16
8717;BME280;4395;48.554;8.820;2023-09-19T01:11:06;95615.25;;;14.73;81.81
8717;BME280;4395;48.554;8.820;2023-09-19T01:13:17;95611.56;;;14.74;81.85
8717;BME280;4395;48.554;8.820;2023-09-19T01:15:32;95611.84;;;14.72;82.10
8717;BME280;4395;48.554;8.820;2023-09-19T01:17:46;95616.72;;;14.79;82.20
8717;BME280;4395;48.554;8.820;2023-09-19T01:20:11;95620.69;;;14.76;82.12
8717;BME280;4395;48.554;8.820;2023-09-19T01:22:24;95620.97;;;14.75;81.82
8717;BME280;4395;48.554;8.820;2023-09-19T01:24:53;95620.13;;;14.80;82.02
8717;BME280;4395;48.554;8.820;2023-09-19T01:27:25;95634.00;;;14.80;81.80
8717;BME280;4395;48.554;8.820;2023-09-19T01:29:37;95623.03;;;14.78;81.90
8717;BME280;4395;48.554;8.820;2023-09-19T01:31:42;95629.63;;;14.75;82.30
8717;BME280;4395;48.554;8.820;2023-09-19T01:33:58;95632.81;;;14.72;81.76
8717;BME280;4395;48.554;8.820;2023-09-19T01:36:02;95634.66;;;14.72;82.39
8717;BME280;4395;48.554;8.820;2023-09-19T01:38:07;95636.50;;;14.71;82.11
8717;BME280;4395;48.554;8.820;2023-09-19T01:40:13;95643.00;;;14.74;81.91
8717;BME280;4395;48.554;8.820;2023-09-19T01:42:29;95650.59;;;14.75;82.19
8717;BME280;4395;48.554;8.820;2023-09-19T01:44:41;95646.72;;;14.73;82.43
8717;BME280;4395;48.554;8.820;2023-09-19T01:46:47;95650.41;;;14.72;82.54
8717;BME280;4395;48.554;8.820;2023-09-19T01:48:56;95643.59;;;14.71;82.49
8717;BME280;4395;48.554;8.820;2023-09-19T01:51:05;95648.06;;;14.70;82.25
8717;BME280;4395;48.554;8.820;2023-09-19T01:53:15;95641.53;;;14.68;82.15
8717;BME280;4395;48.554;8.820;2023-09-19T01:55:26;95650.47;;;14.67;82.18
8717;BME280;4395;48.554;8.820;2023-09-19T01:57:34;95654.91;;;14.66;82.74
8717;BME280;4395;48.554;8.820;2023-09-19T01:59:43;95658.31;;;14.67;82.47
8717;BME280;4395;48.554;8.820;2023-09-19T02:01:49;95651.53;;;14.66;82.26
8717;BME280;4395;48.554;8.820;2023-09-19T02:03:55;95657.81;;;14.65;82.44
8717;BME280;4395;48.554;8.820;2023-09-19T02:05:58;95654.97;;;14.61;82.54
8717;BME280;4395;48.554;8.820;2023-09-19T02:08:01;95649.53;;;14.58;82.27
8717;BME280;4395;48.554;8.820;2023-09-19T02:10:05;95650.09;;;14.55;82.12
8717;BME280;4395;48.554;8.820;2023-09-19T02:12:08;95651.44;;;14.52;82.18
8717;BME280;4395;48.554;8.820;2023-09-19T02:14:11;95646.00;;;14.49;82.35
8717;BME280;4395;48.554;8.820;2023-09-19T02:16:16;95643.19;;;14.45;82.76
8717;BME280;4395;48.554;8.820;2023-09-19T02:18:23;95649.75;;;14.43;82.69
8717;BME280;4395;48.554;8.820;2023-09-19T02:20:28;95650.81;;;14.41;82.40
8717;BME280;4395;48.554;8.820;2023-09-19T02:22:31;95649.78;;;14.37;82.40
8717;BME280;4395;48.554;8.820;2023-09-19T02:24:33;95650.38;;;14.34;83.05
8717;BME280;4395;48.554;8.820;2023-09-19T02:26:37;95657.72;;;14.32;82.58
8717;BME280;4395;48.554;8.820;2023-09-19T02:28:40;95660.84;;;14.34;82.85
8717;BME280;4395;48.554;8.820;2023-09-19T02:30:43;95665.59;;;14.32;82.79
8717;BME280;4395;48.554;8.820;2023-09-19T02:32:50;95655.38;;;14.31;83.06
8717;BME280;4395;48.554;8.820;2023-09-19T02:34:54;95665.06;;;14.30;83.22
8717;BME280;4395;48.554;8.820;2023-09-19T02:36:57;95665.59;;;14.32;83.11
8717;BME280;4395;48.554;8.820;2023-09-19T02:39:01;95660.06;;;14.34;83.48
8717;BME280;4395;48.554;8.820;2023-09-19T02:41:06;95667.66;;;14.35;83.46
8717;BME280;4395;48.554;8.820;2023-09-19T02:43:12;95661.03;;;14.38;83.59
8717;BME280;4395;48.554;8.820;2023-09-19T02:45:14;95667.84;;;14.39;83.28
8717;BME280;4395;48.554;8.820;2023-09-19T02:47:19;95673.66;;;14.36;83.58
8717;BME280;4395;48.554;8.820;2023-09-19T02:49:22;95672.88;;;14.35;83.28
8717;BME280;4395;48.554;8.820;2023-09-19T02:51:26;95674.66;;;14.40;83.88
8717;BME280;4395;48.554;8.820;2023-09-19T02:53:28;95667.06;;;14.38;83.41
8717;BME280;4395;48.554;8.820;2023-09-19T02:55:32;95665.47;;;14.43;83.48
8717;BME280;4395;48.554;8.820;2023-09-19T02:57:35;95673.75;;;14.50;83.55
8717;BME280;4395;48.554;8.820;2023-09-19T02:59:42;95669.59;;;14.49;83.37
8717;BME280;4395;48.554;8.820;2023-09-19T03:01:46;95676.97;;;14.47;84.01
8717;BME280;4395;48.554;8.820;2023-09-19T03:03:50;95674.53;;;14.50;83.93
8717;BME280;4395;48.554;8.820;2023-09-19T03:05:53;95680.28;;;14.52;83.81
8717;BME280;4395;48.554;8.820;2023-09-19T03:07:58;95671.84;;;14.55;83.62
8717;BME280;4395;48.554;8.820;2023-09-19T03:10:03;95679.66;;;14.60;83.66
8717;BME280;4395;48.554;8.820;2023-09-19T03:12:06;95679.34;;;14.62;83.73
8717;BME280;4395;48.554;8.820;2023-09-19T03:14:09;95681.91;;;14.67;83.77
8717;BME280;4395;48.554;8.820;2023-09-19T03:16:14;95686.09;;;14.68;83.86
8717;BME280;4395;48.554;8.820;2023-09-19T03:18:18;95680.78;;;14.73;83.54
8717;BME280;4395;48.554;8.820;2023-09-19T03:20:24;95688.06;;;14.76;83.17
8717;BME280;4395;48.554;8.820;2023-09-19T03:22:27;95691.47;;;14.76;83.35
8717;BME280;4395;48.554;8.820;2023-09-19T03:24:31;95682.81;;;14.76;83.25
8717;BME280;4395;48.554;8.820;2023-09-19T03:26:35;95693.31;;;14.76;83.27
8717;BME280;4395;48.554;8.820;2023-09-19T03:28:39;95684.38;;;14.77;83.10
8717;BME280;4395;48.554;8.820;2023-09-19T03:30:45;95694.09;;;14.76;83.60
8717;BME280;4395;48.554;8.820;2023-09-19T03:32:48;95681.25;;;14.75;83.47
8717;BME280;4395;48.554;8.820;2023-09-19T03:34:52;95696.97;;;14.75;83.50
8717;BME280;4395;48.554;8.820;2023-09-19T03:36:55;95687.22;;;14.81;83.34
8717;BME280;4395;48.554;8.820;2023-09-19T03:38:59;95695.84;;;14.81;83.92
8717;BME280;4395;48.554;8.820;2023-09-19T03:41:04;95693.53;;;14.80;83.40
8717;BME280;4395;48.554;8.820;2023-09-19T03:43:09;95691.97;;;14.78;83.82
8717;BME280;4395;48.554;8.820;2023-09-19T03:45:13;95703.22;;;14.79;83.64
8717;BME280;4395;48.554;8.820;2023-09-19T03:47:22;95698.53;;;14.76;83.53
8717;BME280;4395;48.554;8.820;2023-09-19T03:49:27;95684.94;;;14.74;83.98
8717;BME280;4395;48.554;8.820;2023-09-19T03:51:31;95680.78;;;14.73;83.84
8717;BME280;4395;48.554;8.820;2023-09-19T03:53:36;95690.28;;;14.69;84.36
8717;BME280;4395;48.554;8.820;2023-09-19T03:55:39;95678.22;;;14.68;83.90
8717;BME280;4395;48.554;8.820;2023-09-19T03:57:47;95689.78;;;14.67;84.33
8717;BME280;4395;48.554;8.820;2023-09-19T03:59:50;95682.19;;;14.65;83.94
8717;BME280;4395;48.554;8.820;2023-09-19T04:01:54;95670.13;;;14.64;83.97
8717;BME280;4395;48.554;8.820;2023-09-19T04:03:58;95692.66;;;14.65;83.86
8717;BME280;4395;48.554;8.820;2023-09-19T04:06:10;95685.59;;;14.66;83.94
8717;BME280;4395;48.554;8.820;2023-09-19T04:08:13;95684.53;;;14.67;83.82
8717;BME280;4395;48.554;8.820;2023-09-19T04:10:22;95688.97;;;14.66;83.81
8717;BME280;4395;48.554;8.820;2023-09-19T04:12:25;95680.84;;;14.68;83.99
8717;BME280;4395;48.554;8.820;2023-09-19T04:14:30;95686.59;;;14.70;83.74
8717;BME280;4395;48.554;8.820;2023-09-19T04:16:32;95683.41;;;14.73;84.00
8717;BME280;4395;48.554;8.820;2023-09-19T04:18:36;95684.94;;;14.74;83.98
8717;BME280;4395;48.554;8.820;2023-09-19T04:20:40;95679.69;;;14.74;83.51
8717;BME280;4395;48.554;8.820;2023-09-19T04:22:43;95680.78;;;14.73;83.76
8717;BME280;4395;48.554;8.820;2023-09-19T04:24:46;95685.44;;;14.76;83.71
8717;BME280;4395;48.554;8.820;2023-09-19T04:26:48;95690.50;;;14.72;83.50
8717;BME280;4395;48.554;8.820;2023-09-19T04:28:52;95689.22;;;14.70;83.67
8717;BME280;4395;48.554;8.820;2023-09-19T04:30:56;95689.22;;;14.70;83.56
8717;BME280;4395;48.554;8.820;2023-09-19T04:32:59;95686.09;;;14.68;83.66
8717;BME280;4395;48.554;8.820;2023-09-19T04:35:08;95690.81;;;14.66;84.13
8717;BME280;4395;48.554;8.820;2023-09-19T04:37:11;95691.59;;;14.66;83.83
8717;BME280;4395;48.554;8.820;2023-09-19T04:39:16;95693.66;;;14.69;84.08
8717;BME280;4395;48.554;8.820;2023-09-19T04:41:19;95697.63;;;14.67;83.63
8717;BME280;4395;48.554;8.820;2023-09-19T04:43:23;95703.38;;;14.69;83.62
8717;BME280;4395;48.554;8.820;2023-09-19T04:45:27;95698.13;;;14.69;83.81
8717;BME280;4395;48.554;8.820;2023-09-19T04:47:32;95699.69;;;14.70;84.09
8717;BME280;4395;48.554;8.820;2023-09-19T04:49:34;95704.38;;;14.73;83.99
8717;BME280;4395;48.554;8.820;2023-09-19T04:51:37;95702.22;;;14.75;83.78
8717;BME280;4395;48.554;8.820;2023-09-19T04:53:41;95708.84;;;14.72;83.65
8717;BME280;4395;48.554;8.820;2023-09-19T04:55:45;95708.84;;;14.72;83.95
8717;BME280;4395;48.554;8.820;2023-09-19T04:57:48;95708.06;;;14.72;83.68
8717;BME280;4395;48.554;8.820;2023-09-19T04:59:52;95709.13;;;14.71;83.70
8717;BME280;4395;48.554;8.820;2023-09-19T05:01:55;95710.94;;;14.70;84.09
8717;BME280;4395;48.554;8.820;2023-09-19T05:04:00;95713.28;;;14.72;83.60
8717;BME280;4395;48.554;8.820;2023-09-19T05:06:03;95710.72;;;14.67;83.59
8717;BME280;4395;48.554;8.820;2023-09-19T05:08:06;95709.16;;;14.66;83.42
8717;BME280;4395;48.554;8.820;2023-09-19T05:10:11;95715.47;;;14.65;83.22
8717;BME280;4395;48.554;8.820;2023-09-19T05:12:14;95717.59;;;14.63;83.45
8717;BME280;4395;48.554;8.820;2023-09-19T05:14:17;95723.91;;;14.62;83.17
8717;BME280;4395;48.554;8.820;2023-09-19T05:16:20;95722.06;;;14.62;83.11
8717;BME280;4395;48.554;8.820;2023-09-19T05:18:23;95727.09;;;14.59;83.14
8717;BME280;4395;48.554;8.820;2023-09-19T05:20:28;95734.09;;;14.63;83.27
8717;BME280;4395;48.554;8.820;2023-09-19T05:22:34;95741.41;;;14.66;83.23
8717;BME280;4395;48.554;8.820;2023-09-19T05:24:37;95738.50;;;14.68;83.28
8717;BME280;4395;48.554;8.820;2023-09-19T05:26:40;95739.00;;;14.70;83.00
8717;BME280;4395;48.554;8.820;2023-09-19T05:28:44;95741.34;;;14.71;83.53
8717;BME280;4395;48.554;8.820;2023-09-19T05:30:46;95744.75;;;14.72;83.48
8717;BME280;4395;48.554;8.820;2023-09-19T05:32:50;95745.72;;;14.76;83.96
8717;BME280;4395;48.554;8.820;2023-09-19T05:34:53;95753.59;;;14.76;83.57
8717;BME280;4395;48.554;8.820;2023-09-19T05:36:59;95752.53;;;14.77;83.85
8717;BME280;4395;48.554;8.820;2023-09-19T05:39:02;95754.88;;;14.78;83.86
8717;BME280;4395;48.554;8.820;2023-09-19T05:41:05;95763.78;;;14.77;84.05
8717;BME280;4395;48.554;8.820;2023-09-19T05:43:08;95766.19;;;14.74;84.18
8717;BME280;4395;48.554;8.820;2023-09-19T05:45:11;95767.56;;;14.71;84.27
8717;BME280;4395;48.554;8.820;2023-09-19T05:47:14;95768.81;;;14.74;84.12
8717;BME280;4395;48.554;8.820;2023-09-19T05:49:18;95768.13;;;14.68;84.32
8717;BME280;4395;48.554;8.820;2023-09-19T05:51:23;95770.72;;;14.68;84.64
8717;BME280;4395;48.554;8.820;2023-09-19T05:53:28;95774.63;;;14.71;84.82
8717;BME280;4395;48.554;8.820;2023-09-19T05:55:31;95782.41;;;14.76;84.27
8717;BME280;4395;48.554;8.820;2023-09-19T05:57:33;95786.59;;;14.77;84.24
8717;BME280;4395;48.554;8.820;2023-09-19T05:59:36;95789.22;;;14.77;84.18
8717;BME280;4395;48.554;8.820;2023-09-19T06:01:40;95787.09;;;14.79;84.49
8717;BME280;4395;48.554;8.820;2023-09-19T06:03:44;95787.59;;;14.81;84.81
8717;BME280;4395;48.554;8.820;2023-09-19T06:05:46;95793.34;;;14.83;84.42
8717;BME280;4395;48.554;8.820;2023-09-19T06:07:51;95789.38;;;14.86;84.30
8717;BME280;4395;48.554;8.820;2023-09-19T06:09:56;95798.00;;;14.86;84.26
8717;BME280;4395;48.554;8.820;2023-09-19T06:11:58;95803.25;;;14.86;84.27
8717;BME280;4395;48.554;8.820;2023-09-19T06:14:04;95809.28;;;14.87;84.02
8717;BME280;4395;48.554;8.820;2023-09-19T06:16:08;95813.47;;;14.88;84.06
8717;BME280;4395;48.554;8.820;2023-09-19T06:18:11;95821.56;;;14.91;83.97
8717;BME280;4395;48.554;8.820;2023-09-19T06:20:17;95822.56;;;14.95;83.75
8717;BME280;4395;48.554;8.820;2023-09-19T06:22:21;95816.72;;;14.98;84.27
8717;BME280;4395;48.554;8.820;2023-09-19T06:24:25;95819.78;;;15.05;83.98
8717;BME280;4395;48.554;8.820;2023-09-19T06:26:29;95821.78;;;15.13;83.83
8717;BME280;4395;48.554;8.820;2023-09-19T06:28:32;95819.88;;;15.19;84.02
8717;BME280;4395;48.554;8.820;2023-09-19T06:30:35;95820.78;;;15.28;83.79
8717;BME280;4395;48.554;8.820;2023-09-19T06:32:41;95828.78;;;15.37;83.87
8717;BME280;4395;48.554;8.820;2023-09-19T06:34:45;95827.06;;;15.46;83.54
8717;BME280;4395;48.554;8.820;2023-09-19T06:36:48;95822.50;;;15.57;83.56
8717;BME280;4395;48.554;8.820;2023-09-19T06:38:51;95829.94;;;15.68;83.35
8717;BME280;4395;48.554;8.820;2023-09-19T06:40:54;95827.44;;;15.77;82.45
8717;BME280;4395;48.554;8.820;2023-09-19T06:42:58;95829.59;;;15.89;82.16
8717;BME280;4395;48.554;8.820;2023-09-19T06:45:04;95830.78;;;15.96;81.99
8717;BME280;4395;48.554;8.820;2023-09-19T06:47:07;95837.81;;;16.01;81.78
8717;BME280;4395;48.554;8.820;2023-09-19T06:49:12;95841.81;;;16.12;81.42
8717;BME280;4395;48.554;8.820;2023-09-19T06:51:16;95844.81;;;16.19;81.41
8717;BME280;4395;48.554;8.820;2023-09-19T06:53:19;95841.84;;;16.26;80.77
8717;BME280;4395;48.554;8.820;2023-09-19T06:55:22;95849.63;;;16.58;79.47
8717;BME280;4395;48.554;8.820;2023-09-19T06:57:27;95850.88;;;17.65;75.00
8717;BME280;4395;48.554;8.820;2023-09-19T06:59:31;95849.75;;;18.33;72.70
8717;BME280;4395;48.554;8.820;2023-09-19T07:01:34;95845.50;;;19.11;69.11
8717;BME280;4395;48.554;8.820;2023-09-19T07:03:39;95844.00;;;19.88;65.98
8717;BME280;4395;48.554;8.820;2023-09-19T07:05:43;95837.56;;;20.06;64.60
8717;BME280;4395;48.554;8.820;2023-09-19T07:07:45;95844.53;;;20.36;63.63
8717;BME280;4395;48.554;8.820;2023-09-19T07:09:48;95842.16;;;20.52;63.60
8717;BME280;4395;48.554;8.820;2023-09-19T07:11:52;95843.03;;;20.65;62.33
8717;BME280;4395;48.554;8.820;2023-09-19T07:13:55;95854.84;;;20.67;62.57
8717;BME280;4395;48.554;8.820;2023-09-19T07:15:59;95858.25;;;20.68;62.55
8717;BME280;4395;48.554;8.820;2023-09-19T07:18:03;95855.66;;;20.59;62.45
8717;BME280;4395;48.554;8.820;2023-09-19T07:20:06;95859.66;;;20.65;62.49
8717;BME280;4395;48.554;8.820;2023-09-19T07:22:09;95861.09;;;20.63;62.05
8717;BME280;4395;48.554;8.820;2023-09-19T07:24:12;95870.13;;;20.62;61.60
8717;BME280;4395;48.554;8.820;2023-09-19T07:26:15;95876.63;;;20.73;61.16
8717;BME280;4395;48.554;8.820;2023-09-19T07:28:18;95869.34;;;20.61;59.51
8717;BME280;4395;48.554;8.820;2023-09-19T07:30:21;95878.19;;;20.65;61.30
8717;BME280;4395;48.554;8.820;2023-09-19T07:32:26;95867.78;;;20.60;61.19
8717;BME280;4395;48.554;8.820;2023-09-19T07:34:29;95872.22;;;20.22;60.59
8717;BME280;4395;48.554;8.820;2023-09-19T07:36:32;95875.88;;;19.74;61.13
8717;BME280;4395;48.554;8.820;2023-09-19T07:38:36;95881.06;;;19.05;62.88
8717;BME280;4395;48.554;8.820;2023-09-19T07:40:39;95882.47;;;18.63;62.88
8717;BME280;4395;48.554;8.820;2023-09-19T07:42:42;95885.91;;;18.41;64.94
8717;BME280;4395;48.554;8.820;2023-09-19T07:44:45;95890.41;;;18.10;64.71
8717;BME280;4395;48.554;8.820;2023-09-19T07:46:52;95900.91;;;17.87;65.54
8717;BME280;4395;48.554;8.820;2023-09-19T07:48:56;95887.75;;;17.51;65.33
8717;BME280;4395;48.554;8.820;2023-09-19T07:51:02;95893.63;;;17.48;67.53
8717;BME280;4395;48.554;8.820;2023-09-19T07:53:05;95888.25;;;17.40;68.54
8717;BME280;4395;48.554;8.820;2023-09-19T07:55:08;95892.88;;;17.34;68.16
8717;BME280;4395;48.554;8.820;2023-09-19T07:57:13;95886.13;;;17.42;68.83
8717;BME280;4395;48.554;8.820;2023-09-19T07:59:16;95895.09;;;17.27;66.20
8717;BME280;4395;48.554;8.820;2023-09-19T08:01:19;95893.38;;;17.22;67.46
8717;BME280;4395;48.554;8.820;2023-09-19T08:03:25;95902.66;;;17.06;66.09
8717;BME280;4395;48.554;8.820;2023-09-19T08:05:29;95907.13;;;17.06;67.86
8717;BME280;4395;48.554;8.820;2023-09-19T08:07:35;95905.41;;;17.01;67.78
8717;BME280;4395;48.554;8.820;2023-09-19T08:09:38;95905.84;;;17.03;67.49
8717;BME280;4395;48.554;8.820;2023-09-19T08:11:41;95909.97;;;17.09;66.83
8717;BME280;4395;48.554;8.820;2023-09-19T08:13:45;95925.34;;;17.16;67.03
8717;BME280;4395;48.554;8.820;2023-09-19T08:15:50;95911.53;;;16.97;65.88
8717;BME280;4395;48.554;8.820;2023-09-19T08:17:55;95906.06;;;16.93;67.29
8717;BME280;4395;48.554;8.820;2023-09-19T08:19:58;95911.91;;;17.04;67.85
8717;BME280;4395;48.554;8.820;2023-09-19T08:22:03;95913.16;;;17.06;66.96
8717;BME280;4395;48.554;8.820;2023-09-19T08:24:06;95912.69;;;17.04;66.60
8717;BME280;4395;48.554;8.820;2023-09-19T08:26:10;95927.03;;;16.98;66.71
8717;BME280;4395;48.554;8.820;2023-09-19T08:28:12;95926.81;;;16.95;67.47
8717;BME280;4395;48.554;8.820;2023-09-19T08:30:22;95923.03;;;16.87;67.24
8717;BME280;4395;48.554;8.820;2023-09-19T08:32:28;95926.53;;;16.82;66.59
8717;BME280;4395;48.554;8.820;2023-09-19T08:34:31;95927.31;;;16.83;67.23
8717;BME280;4395;48.554;8.820;2023-09-19T08:36:35;95928.78;;;16.89;68.03
8717;BME280;4395;48.554;8.820;2023-09-19T08:38:41;95933.06;;;16.99;65.93
8717;BME280;4395;48.554;8.820;2023-09-19T08:40:44;95939.00;;;17.04;66.35
8717;BME280;4395;48.554;8.820;2023-09-19T08:42:48;95942.13;;;17.06;67.17
8717;BME280;4395;48.554;8.820;2023-09-19T08:44:51;95952.13;;;17.04;65.50
8717;BME280;4395;48.554;8.820;2023-09-19T08:47:04;95955.75;;;17.08;65.90
8717;BME280;4395;48.554;8.820;2023-09-19T08:49:18;95949.81;;;17.16;65.07
8717;BME280;4395;48.554;8.820;2023-09-19T08:51:26;95947.75;;;17.27;65.74
8717;BME280;4395;48.554;8.820;2023-09-19T08:53:34;95954.06;;;17.40;64.95
8717;BME280;4395;48.554;8.820;2023-09-19T08:55:41;95970.03;;;17.57;63.74
8717;BME280;4395;48.554;8.820;2023-09-19T08:57:46;95953.56;;;17.65;64.25
8717;BME280;4395;48.554;8.820;2023-09-19T08:59:51;95956.84;;;17.84;61.32
8717;BME280;4395;48.554;8.820;2023-09-19T09:01:56;95952.69;;;18.06;61.04
8717;BME280;4395;48.554;8.820;2023-09-19T09:04:01;95954.59;;;18.14;59.78
8717;BME280;4395;48.554;8.820;2023-09-19T09:06:05;95949.56;;;18.26;59.69
8717;BME280;4395;48.554;8.820;2023-09-19T09:08:10;95957.22;;;18.36;59.86
8717;BME280;4395;48.554;8.820;2023-09-19T09:10:13;95952.84;;;18.54;59.89
8717;BME280;4395;48.554;8.820;2023-09-19T09:12:17;95950.78;;;18.73;58.94
8717;BME280;4395;48.554;8.820;2023-09-19T09:14:19;95950.47;;;18.75;57.45
8717;BME280;4395;48.554;8.820;2023-09-19T09:16:23;95956.16;;;18.59;56.56
8717;BME280;4395;48.554;8.820;2023-09-19T09:18:28;95949.13;;;18.55;59.57
8717;BME280;4395;48.554;8.820;2023-09-19T09:20:31;95962.06;;;18.43;57.24
8717;BME280;4395;48.554;8.820;2023-09-19T09:22:34;95968.47;;;18.50;56.89
8717;BME280;4395;48.554;8.820;2023-09-19T09:24:51;95955.38;;;18.59;57.26
8717;BME280;4395;48.554;8.820;2023-09-19T09:26:55;95951.97;;;18.58;56.97
8717;BME280;4395;48.554;8.820;2023-09-19T09:29:00;95955.28;;;18.73;58.36
8717;BME280;4395;48.554;8.820;2023-09-19T09:31:03;95951.44;;;18.79;56.31
8717;BME280;4395;48.554;8.820;2023-09-19T09:33:10;95957.09;;;18.63;55.31
8717;BME280;4395;48.554;8.820;2023-09-19T09:35:14;95961.78;;;18.66;56.28
8717;BME280;4395;48.554;8.820;2023-09-19T09:37:22;95967.13;;;18.84;55.23
8717;BME280;4395;48.554;8.820;2023-09-19T09:39:30;95958.47;;;18.92;54.41
8717;BME280;4395;48.554;8.820;2023-09-19T09:41:36;95953.91;;;18.75;54.64
8717;BME280;4395;48.554;8.820;2023-09-19T09:43:39;95965.75;;;18.86;56.42
8717;BME280;4395;48.554;8.820;2023-09-19T09:45:45;95963.16;;;18.95;54.53
8717;BME280;4395;48.554;8.820;2023-09-19T09:47:50;95951.25;;;19.06;55.11
8717;BME280;4395;48.554;8.820;2023-09-19T09:49:56;95953.09;;;19.05;53.57
8717;BME280;4395;48.554;8.820;2023-09-19T09:52:09;95955.84;;;19.31;55.05
8717;BME280;4395;48.554;8.820;2023-09-19T09:54:18;95954.97;;;19.62;52.86
8717;BME280;4395;48.554;8.820;2023-09-19T09:56:21;95950.63;;;19.66;53.21
8717;BME280;4395;48.554;8.820;2023-09-19T09:58:24;95943.03;;;19.90;52.69
8717;BME280;4395;48.554;8.820;2023-09-19T10:00:31;95942.25;;;20.07;51.76
8717;BME280;4395;48.554;8.820;2023-09-19T10:02:45;95947.06;;;20.22;50.59
8717;BME280;4395;48.554;8.820;2023-09-19T10:04:49;95943.00;;;20.25;51.09
8717;BME280;4395;48.554;8.820;2023-09-19T10:06:53;95945.47;;;20.47;50.16
8717;BME280;4395;48.554;8.820;2023-09-19T10:09:04;95952.00;;;20.58;50.51
8717;BME280;4395;48.554;8.820;2023-09-19T10:11:16;95952.41;;;20.77;49.37
8717;BME280;4395;48.554;8.820;2023-09-19T10:13:20;95931.31;;;20.98;49.90
8717;BME280;4395;48.554;8.820;2023-09-19T10:15:26;95932.00;;;21.16;48.82
8717;BME280;4395;48.554;8.820;2023-09-19T10:17:34;95952.00;;;21.05;47.75
8717;BME280;4395;48.554;8.820;2023-09-19T10:19:42;95945.94;;;20.58;47.56
8717;BME280;4395;48.554;8.820;2023-09-19T10:21:49;95947.31;;;20.55;48.74
8717;BME280;4395;48.554;8.820;2023-09-19T10:23:53;95946.81;;;20.70;47.09
8717;BME280;4395;48.554;8.820;2023-09-19T10:25:58;95942.56;;;20.87;48.27
8717;BME280;4395;48.554;8.820;2023-09-19T10:28:05;95943.41;;;21.08;48.15
8717;BME280;4395;48.554;8.820;2023-09-19T10:30:14;95934.97;;;21.14;47.29
8717;BME280;4395;48.554;8.820;2023-09-19T10:32:18;95939.69;;;21.09;48.34
8717;BME280;4395;48.554;8.820;2023-09-19T10:34:22;95935.59;;;21.20;49.43
8717;BME280;4395;48.554;8.820;2023-09-19T10:36:32;95930.13;;;21.25;47.81
8717;BME280;4395;48.554;8.820;2023-09-19T10:38:37;95933.38;;;21.51;48.05
8717;BME280;4395;48.554;8.820;2023-09-19T10:40:43;95938.28;;;21.62;46.34
8717;BME280;4395;48.554;8.820;2023-09-19T10:42:48;95937.88;;;21.60;45.65
8717;BME280;4395;48.554;8.820;2023-09-19T10:44:53;95942.13;;;21.73;47.54
8717;BME280;4395;48.554;8.820;2023-09-19T10:46:57;95942.34;;;22.09;46.83
8717;BME280;4395;48.554;8.820;2023-09-19T10:49:01;95944.31;;;22.33;46.22
8717;BME280;4395;48.554;8.820;2023-09-19T10:51:08;95958.09;;;22.26;47.02
8717;BME280;4395;48.554;8.820;2023-09-19T10:53:14;95947.88;;;22.49;45.91
8717;BME280;4395;48.554;8.820;2023-09-19T10:55:19;95950.25;;;22.63;46.51
8717;BME280;4395;48.554;8.820;2023-09-19T10:57:24;95936.59;;;22.85;44.07
8717;BME280;4395;48.554;8.820;2023-09-19T10:59:29;95951.44;;;22.86;44.59
8717;BME280;4395;48.554;8.820;2023-09-19T11:01:43;95940.59;;;22.79;44.77
8717;BME280;4395;48.554;8.820;2023-09-19T11:04:22;95961.63;;;22.96;44.14
8717;BME280;4395;48.554;8.820;2023-09-19T11:06:26;95955.31;;;22.89;43.67
8717;BME280;4395;48.554;8.820;2023-09-19T11:08:31;95948.91;;;22.90;43.37
8717;BME280;4395;48.554;8.820;2023-09-19T11:10:46;95944.41;;;22.37;44.51
8717;BME280;4395;48.554;8.820;2023-09-19T11:12:50;95962.34;;;22.40;46.14
8717;BME280;4395;48.554;8.820;2023-09-19T11:14:53;95937.78;;;22.31;44.81
8717;BME280;4395;48.554;8.820;2023-09-19T11:20:21;95941.31;;;22.02;45.71
8717;BME280;4395;48.554;8.820;2023-09-19T11:23:16;95933.97;;;21.78;45.68
8717;BME280;4395;48.554;8.820;2023-09-19T11:25:42;95941.41;;;21.64;47.01